Time;durP1;ratioP1;P1;durP2;ratioP2;P2;SDS_P1;SDS_P2;PMS_P1;PMS_P2;Temp;Humidity;BMP_temperature;BMP_pressure;BME280_temperature;BME280_humidity;BME280_pressure;Samples;Min_cycle;Max_cycle;Signal;HPM_P1;HPM_P2
2022/11/09 00:01:42;;;;;;;2.40;2.20;;;16.80;67.30;;;;;;5051695;28;20179;-68
2022/11/09 00:04:08;;;;;;;3.78;2.00;;;16.80;67.40;;;;;;5051330;28;20183;-68
2022/11/09 00:06:34;;;;;;;3.97;2.15;;;16.80;67.40;;;;;;5050963;28;20538;-68
2022/11/09 00:09:00;;;;;;;3.75;1.90;;;16.80;67.40;;;;;;5050701;28;20272;-68
2022/11/09 00:11:25;;;;;;;3.20;1.90;;;16.80;67.40;;;;;;5051006;28;20183;-67
2022/11/09 00:13:51;;;;;;;3.40;1.98;;;16.80;67.50;;;;;;5051471;28;20235;-68
2022/11/09 00:16:18;;;;;;;2.03;1.80;;;16.80;67.40;;;;;;5051087;28;20174;-68
2022/11/09 00:18:46;;;;;;;2.65;2.28;;;16.80;67.40;;;;;;5050547;28;20188;-67
2022/11/09 00:21:16;;;;;;;5.20;2.20;;;16.80;67.50;;;;;;5051088;28;20175;-68
2022/11/09 00:23:42;;;;;;;3.40;2.20;;;16.80;67.70;;;;;;5051464;28;20178;-67
2022/11/09 00:26:08;;;;;;;2.58;2.25;;;16.80;67.50;;;;;;5050324;28;20182;-68
2022/11/09 00:28:34;;;;;;;4.88;2.28;;;16.80;67.50;;;;;;5051243;28;20179;-67
2022/11/09 00:31:04;;;;;;;3.17;2.80;;;16.80;67.70;;;;;;5050968;28;20218;-67
2022/11/09 00:33:30;;;;;;;3.33;2.20;;;16.70;67.60;;;;;;5050680;28;20189;-68
2022/11/09 00:35:56;;;;;;;2.58;2.35;;;16.80;67.50;;;;;;5051074;28;20179;-68
2022/11/09 00:38:21;;;;;;;2.83;1.70;;;16.80;67.60;;;;;;5050771;28;20306;-69
2022/11/09 00:40:47;;;;;;;3.33;2.25;;;16.80;67.50;;;;;;5050856;28;20189;-68
2022/11/09 00:43:12;;;;;;;3.83;1.90;;;16.80;67.70;;;;;;5051958;28;20178;-68
2022/11/09 00:45:39;;;;;;;3.13;2.35;;;16.80;67.50;;;;;;5052205;28;20548;-68
2022/11/09 00:48:05;;;;;;;2.33;2.13;;;16.80;67.60;;;;;;5054846;28;20172;-67
2022/11/09 00:50:30;;;;;;;2.80;2.10;;;16.80;67.70;;;;;;5055935;28;20221;-67
2022/11/09 00:52:56;;;;;;;2.35;2.08;;;16.80;67.70;;;;;;5055923;28;20232;-68
2022/11/09 00:55:22;;;;;;;3.85;2.20;;;16.70;67.50;;;;;;5055020;28;20217;-68
2022/11/09 00:57:51;;;;;;;3.17;2.03;;;16.80;67.50;;;;;;5055668;28;20257;-67
2022/11/09 01:00:20;;;;;;;3.42;1.88;;;16.70;67.60;;;;;;5055662;28;20175;-68
2022/11/09 01:02:46;;;;;;;2.53;1.85;;;16.70;67.60;;;;;;5055074;28;20260;-68
2022/11/09 01:05:12;;;;;;;4.90;2.38;;;16.70;67.70;;;;;;5055318;28;20272;-68
2022/11/09 01:07:37;;;;;;;2.95;2.22;;;16.70;67.80;;;;;;5054662;28;20175;-68
2022/11/09 01:10:04;;;;;;;2.83;2.08;;;16.70;67.90;;;;;;5054817;28;20226;-67
2022/11/09 01:12:30;;;;;;;2.42;2.20;;;16.70;67.80;;;;;;5055443;28;20263;-67
2022/11/09 01:14:55;;;;;;;3.88;2.60;;;16.70;67.80;;;;;;5055018;28;20282;-68
2022/11/09 01:17:21;;;;;;;2.47;2.28;;;16.70;67.90;;;;;;5054913;28;20634;-68
2022/11/09 01:19:47;;;;;;;2.08;1.90;;;16.70;67.90;;;;;;5055335;28;20198;-68
2022/11/09 01:22:12;;;;;;;3.05;2.10;;;16.70;68.00;;;;;;5054447;28;20203;-67
2022/11/09 01:24:38;;;;;;;3.28;2.38;;;16.70;68.00;;;;;;5055455;28;20308;-67
2022/11/09 01:27:03;;;;;;;2.35;2.10;;;16.70;68.00;;;;;;5054962;28;20633;-67
2022/11/09 01:29:29;;;;;;;2.53;1.88;;;16.70;67.90;;;;;;5053791;28;20737;-67
2022/11/09 01:31:54;;;;;;;2.90;2.25;;;16.70;68.00;;;;;;5055351;28;20176;-68
2022/11/09 01:34:20;;;;;;;5.50;2.50;;;16.70;68.00;;;;;;5054938;28;20244;-67
2022/11/09 01:36:48;;;;;;;2.47;2.08;;;16.70;68.00;;;;;;5054357;28;20692;-68
2022/11/09 01:39:14;;;;;;;3.55;2.30;;;16.70;67.90;;;;;;5054451;28;20187;-68
2022/11/09 01:41:39;;;;;;;2.70;1.73;;;16.70;67.90;;;;;;5055245;28;20171;-67
2022/11/09 01:44:13;;;;;;;3.65;2.42;;;16.70;67.70;;;;;;5054167;28;20266;-68
2022/11/09 01:46:59;;;;;;;2.15;1.95;;;16.70;67.50;;;;;;5055026;28;20183;-67
2022/11/09 01:49:49;;;;;;;2.65;2.15;;;16.70;67.70;;;;;;5054544;28;20211;-68
2022/11/09 01:52:19;;;;;;;2.65;1.90;;;16.70;67.80;;;;;;5054822;28;20175;-67
2022/11/09 01:54:48;;;;;;;2.97;1.90;;;16.70;67.70;;;;;;5053839;28;20602;-67
2022/11/09 01:57:17;;;;;;;4.68;2.30;;;16.70;67.70;;;;;;5052707;28;20254;-67
2022/11/09 01:59:45;;;;;;;2.72;2.30;;;16.70;67.80;;;;;;5054030;28;20649;-67
2022/11/09 02:02:11;;;;;;;1.80;1.70;;;16.70;67.70;;;;;;5052833;28;20183;-67
2022/11/09 02:05:05;;;;;;;2.13;1.55;;;16.70;67.80;;;;;;5052624;28;20183;-68
2022/11/09 02:07:30;;;;;;;1.88;1.77;;;16.70;67.70;;;;;;5053436;28;20274;-68
2022/11/09 02:10:06;;;;;;;2.15;1.70;;;16.70;67.70;;;;;;5054039;28;20321;-67
2022/11/09 02:12:32;;;;;;;3.97;1.90;;;16.70;67.70;;;;;;5052483;28;20525;-67
2022/11/09 02:14:58;;;;;;;5.15;2.17;;;16.70;67.70;;;;;;5053140;28;20183;-68
2022/11/09 02:17:23;;;;;;;2.42;1.60;;;16.70;67.70;;;;;;5053594;28;20190;-68
2022/11/09 02:19:49;;;;;;;2.55;1.85;;;16.70;67.70;;;;;;5052499;28;20368;-68
2022/11/09 02:22:14;;;;;;;2.78;2.17;;;16.70;67.50;;;;;;5054089;28;20641;-68
2022/11/09 02:24:40;;;;;;;2.58;1.80;;;16.70;67.70;;;;;;5053079;28;20282;-67
2022/11/09 02:27:06;;;;;;;2.45;2.00;;;16.70;67.70;;;;;;5053276;28;20171;-68
2022/11/09 02:29:36;;;;;;;2.30;1.85;;;16.60;67.50;;;;;;5053782;28;20211;-68
2022/11/09 02:32:04;;;;;;;2.33;1.70;;;16.70;67.80;;;;;;5051807;28;20238;-67
2022/11/09 02:34:29;;;;;;;3.17;1.75;;;16.60;67.50;;;;;;5053029;28;20264;-68
2022/11/09 02:36:55;;;;;;;3.42;2.03;;;16.60;67.50;;;;;;5053953;28;20605;-68
2022/11/09 02:39:22;;;;;;;3.47;2.40;;;16.60;67.50;;;;;;5053278;28;20207;-68
2022/11/09 02:41:58;;;;;;;3.30;1.92;;;16.60;67.40;;;;;;5052365;28;20198;-67
2022/11/09 02:44:23;;;;;;;2.20;1.95;;;16.60;67.40;;;;;;5054062;28;20289;-67
2022/11/09 02:46:49;;;;;;;2.25;1.65;;;16.60;67.50;;;;;;5051954;28;20564;-68
2022/11/09 02:49:14;;;;;;;2.30;1.88;;;16.60;67.50;;;;;;5052880;28;20191;-67
2022/11/09 02:51:40;;;;;;;2.65;1.58;;;16.60;67.40;;;;;;5053889;28;20197;-68
2022/11/09 02:54:05;;;;;;;3.95;1.77;;;16.60;67.40;;;;;;5052690;28;20171;-67
2022/11/09 02:56:31;;;;;;;3.15;1.85;;;16.60;67.30;;;;;;5053645;28;20707;-67
2022/11/09 02:58:56;;;;;;;1.70;1.35;;;16.60;67.30;;;;;;5053270;28;20229;-68
2022/11/09 03:01:22;;;;;;;1.77;1.63;;;16.60;67.40;;;;;;5052811;28;20258;-67
2022/11/09 03:03:47;;;;;;;2.97;2.30;;;16.60;67.30;;;;;;5053616;28;20171;-67
2022/11/09 03:06:13;;;;;;;2.47;1.30;;;16.60;67.30;;;;;;5053231;28;20265;-67
2022/11/09 03:08:38;;;;;;;2.70;1.70;;;16.60;67.30;;;;;;5051929;28;20266;-68
2022/11/09 03:11:05;;;;;;;2.95;1.80;;;16.60;67.30;;;;;;5052154;28;20567;-67
2022/11/09 03:13:31;;;;;;;2.30;1.40;;;16.60;67.20;;;;;;5053502;28;20179;-68
2022/11/09 03:15:56;;;;;;;2.30;1.40;;;16.60;67.20;;;;;;5051586;28;20190;-68
2022/11/09 03:18:22;;;;;;;2.00;1.80;;;16.60;67.20;;;;;;5052033;28;20172;-68
2022/11/09 03:20:47;;;;;;;3.50;1.90;;;16.60;67.20;;;;;;5052421;28;20175;-68
2022/11/09 03:23:13;;;;;;;1.80;1.60;;;16.60;67.20;;;;;;5051205;28;20167;-67
2022/11/09 03:25:38;;;;;;;2.83;2.00;;;16.60;67.20;;;;;;5052608;28;20535;-67
2022/11/09 03:28:05;;;;;;;3.55;1.70;;;16.60;67.20;;;;;;5052344;28;20178;-67
2022/11/09 03:30:31;;;;;;;2.00;1.80;;;16.60;67.20;;;;;;5052417;28;20562;-67
2022/11/09 03:33:01;;;;;;;2.03;1.65;;;16.60;67.20;;;;;;5052609;28;20673;-68
2022/11/09 03:35:26;;;;;;;2.15;1.80;;;16.60;67.20;;;;;;5052157;28;20171;-68
2022/11/09 03:37:52;;;;;;;2.92;1.92;;;16.60;67.10;;;;;;5052494;28;20185;-68
2022/11/09 03:40:17;;;;;;;1.58;1.40;;;16.60;67.20;;;;;;5052378;28;20210;-68
2022/11/09 03:42:45;;;;;;;2.47;1.58;;;16.50;67.10;;;;;;5052260;28;20174;-67
2022/11/09 03:45:11;;;;;;;2.25;1.48;;;16.60;67.20;;;;;;5052805;28;20185;-68
2022/11/09 03:47:40;;;;;;;2.50;1.88;;;16.60;67.10;;;;;;5052408;28;20218;-67
2022/11/09 03:50:06;;;;;;;2.28;1.73;;;16.50;67.10;;;;;;5050781;28;20215;-68
2022/11/09 03:52:31;;;;;;;1.92;1.70;;;16.60;67.10;;;;;;5052193;28;20179;-67
2022/11/09 03:54:57;;;;;;;2.67;1.85;;;16.50;67.10;;;;;;5051668;28;20660;-67
2022/11/09 03:57:22;;;;;;;1.60;1.50;;;16.50;67.10;;;;;;5052051;28;20193;-68
2022/11/09 03:59:48;;;;;;;2.85;1.67;;;16.50;67.10;;;;;;5052355;28;20201;-67
2022/11/09 04:02:13;;;;;;;2.97;1.58;;;16.50;67.00;;;;;;5052350;28;20236;-68
2022/11/09 04:04:39;;;;;;;1.85;1.63;;;16.50;67.00;;;;;;5051807;28;20221;-67
2022/11/09 04:07:04;;;;;;;1.27;1.10;;;16.50;67.00;;;;;;5052040;28;20575;-68
2022/11/09 04:09:30;;;;;;;3.00;1.55;;;16.50;67.00;;;;;;5051930;28;20681;-67
2022/11/09 04:11:55;;;;;;;1.65;1.55;;;16.50;67.00;;;;;;5051803;28;20179;-67
2022/11/09 04:14:21;;;;;;;1.67;1.58;;;16.50;67.00;;;;;;5052167;28;20179;-68
2022/11/09 04:16:46;;;;;;;2.50;1.85;;;16.50;67.00;;;;;;5052439;28;20175;-68
2022/11/09 04:19:12;;;;;;;2.80;1.83;;;16.50;67.00;;;;;;5050969;28;20626;-68
2022/11/09 04:21:38;;;;;;;2.80;1.80;;;16.50;67.00;;;;;;5052123;28;20217;-67
2022/11/09 04:24:03;;;;;;;1.92;1.50;;;16.50;67.00;;;;;;5052097;28;20190;-67
2022/11/09 04:26:29;;;;;;;5.47;1.88;;;16.50;67.00;;;;;;5051495;28;20187;-67
2022/11/09 04:28:54;;;;;;;2.30;1.70;;;16.50;67.00;;;;;;5051940;28;20181;-67
2022/11/09 04:31:20;;;;;;;2.25;1.42;;;16.50;67.00;;;;;;5052020;28;20392;-68
2022/11/09 04:33:49;;;;;;;2.03;1.63;;;16.50;67.00;;;;;;5051487;28;20204;-68
2022/11/09 04:36:15;;;;;;;2.60;1.60;;;16.50;67.00;;;;;;5050791;28;20218;-68
2022/11/09 04:38:40;;;;;;;1.80;1.48;;;16.50;67.00;;;;;;5050546;28;20194;-68
2022/11/09 04:41:07;;;;;;;2.20;2.00;;;16.50;66.90;;;;;;5051474;28;20270;-67
2022/11/09 04:43:32;;;;;;;2.20;1.55;;;16.50;66.90;;;;;;5051712;28;20175;-67
2022/11/09 04:46:01;;;;;;;1.60;1.50;;;16.50;67.00;;;;;;5051221;28;20174;-67
2022/11/09 04:48:27;;;;;;;2.58;1.60;;;16.40;66.90;;;;;;5051863;28;20167;-68
2022/11/09 04:51:00;;;;;;;1.80;1.50;;;16.50;67.00;;;;;;5051864;28;20229;-67
2022/11/09 04:53:26;;;;;;;1.70;1.60;;;16.50;66.90;;;;;;5051557;28;20171;-68
2022/11/09 04:55:52;;;;;;;1.95;1.55;;;16.50;67.80;;;;;;5052068;28;20179;-68
2022/11/09 04:58:17;;;;;;;3.28;1.73;;;16.50;67.00;;;;;;5051448;28;20206;-67
2022/11/09 05:00:42;;;;;;;2.33;1.80;;;16.50;66.90;;;;;;5051345;28;20190;-68
2022/11/09 05:03:08;;;;;;;3.20;1.50;;;16.50;67.00;;;;;;5051666;28;20217;-68
2022/11/09 05:05:34;;;;;;;3.03;1.60;;;16.50;66.90;;;;;;5050711;28;20253;-68
2022/11/09 05:08:00;;;;;;;2.45;1.52;;;16.50;66.90;;;;;;5050239;28;20228;-68
2022/11/09 05:10:25;;;;;;;2.40;1.38;;;16.50;67.00;;;;;;5050962;28;20698;-67
2022/11/09 05:13:03;;;;;;;2.47;1.40;;;16.50;66.90;;;;;;5051610;28;20298;-67
2022/11/09 05:15:28;;;;;;;2.55;1.65;;;16.50;67.00;;;;;;5050850;28;20175;-68
2022/11/09 05:17:54;;;;;;;3.20;1.40;;;16.40;66.80;;;;;;5051347;28;20184;-68
2022/11/09 05:20:20;;;;;;;2.00;1.30;;;16.50;66.90;;;;;;5051668;28;20272;-68
2022/11/09 05:25:29;;;;;;;1.30;1.20;;;16.40;66.80;;;;;;5051578;28;20174;-67
2022/11/09 05:27:55;;;;;;;3.35;1.48;;;16.50;66.90;;;;;;5051233;28;20183;-67
2022/11/09 05:30:20;;;;;;;2.15;1.23;;;16.40;66.80;;;;;;5050975;28;20202;-67
2022/11/09 05:32:46;;;;;;;2.72;1.73;;;16.40;66.90;;;;;;5051857;28;20175;-68
2022/11/09 05:35:11;;;;;;;1.70;1.40;;;16.40;66.80;;;;;;5053220;28;20182;-68
2022/11/09 05:37:37;;;;;;;1.73;1.40;;;16.40;66.80;;;;;;5055023;28;20550;-68
2022/11/09 05:40:03;;;;;;;2.17;1.40;;;16.40;66.80;;;;;;5054396;28;20545;-68
2022/11/09 05:42:29;;;;;;;2.70;1.40;;;16.40;66.80;;;;;;5054477;28;20178;-68
2022/11/09 05:44:54;;;;;;;3.13;1.60;;;16.40;66.80;;;;;;5055001;28;20171;-68
2022/11/09 05:47:20;;;;;;;1.52;1.42;;;16.40;66.80;;;;;;5054366;28;20517;-68
2022/11/09 05:49:45;;;;;;;2.10;1.90;;;16.40;66.80;;;;;;5053954;28;20249;-69
2022/11/09 05:52:11;;;;;;;2.63;1.58;;;16.40;66.80;;;;;;5054583;28;20194;-67
2022/11/09 05:54:37;;;;;;;1.60;1.50;;;16.40;66.80;;;;;;5054564;28;20179;-68
2022/11/09 05:57:02;;;;;;;2.58;1.60;;;16.40;66.80;;;;;;5053566;28;20186;-68
2022/11/09 05:59:28;;;;;;;2.58;1.33;;;16.40;66.80;;;;;;5054628;28;20171;-68
2022/11/09 06:01:53;;;;;;;3.40;1.65;;;16.40;66.80;;;;;;5054714;28;20224;-68
2022/11/09 06:04:19;;;;;;;2.20;1.33;;;16.40;66.80;;;;;;5053634;28;20228;-68
2022/11/09 06:06:44;;;;;;;3.78;1.42;;;16.40;66.80;;;;;;5054534;28;20262;-68
2022/11/09 06:09:10;;;;;;;2.80;1.65;;;16.40;66.80;;;;;;5053879;28;20581;-68
2022/11/09 06:11:35;;;;;;;2.13;1.55;;;16.40;66.80;;;;;;5053464;28;20183;-68
2022/11/09 06:14:01;;;;;;;3.13;1.50;;;16.40;66.80;;;;;;5054141;28;20210;-68
2022/11/09 06:16:26;;;;;;;1.80;1.70;;;16.40;66.80;;;;;;5054091;28;20206;-68
2022/11/09 06:18:52;;;;;;;2.10;1.30;;;16.40;67.60;;;;;;5053671;28;20174;-67
2022/11/09 06:21:17;;;;;;;2.58;2.00;;;16.40;66.80;;;;;;5054287;28;20183;-68
2022/11/09 06:23:43;;;;;;;2.33;1.50;;;16.40;66.80;;;;;;5054567;28;20194;-67
2022/11/09 06:26:09;;;;;;;2.92;1.40;;;16.40;66.80;;;;;;5052993;28;20266;-67
2022/11/09 06:28:36;;;;;;;1.77;1.40;;;16.40;66.80;;;;;;5054287;28;20175;-67
2022/11/09 06:31:02;;;;;;;1.90;1.60;;;16.40;66.80;;;;;;5054053;28;20225;-67
2022/11/09 06:33:32;;;;;;;2.72;1.85;;;16.40;66.80;;;;;;5053681;28;20312;-68
2022/11/09 06:35:58;;;;;;;1.83;1.40;;;16.40;66.80;;;;;;5053636;28;20175;-68
2022/11/09 06:38:25;;;;;;;2.85;1.67;;;16.40;66.80;;;;;;5053237;28;20198;-68
2022/11/09 06:40:51;;;;;;;1.63;1.30;;;16.40;66.90;;;;;;5054031;28;20205;-68
2022/11/09 06:43:17;;;;;;;2.38;1.50;;;16.30;66.80;;;;;;5053620;28;20183;-69
2022/11/09 06:45:42;;;;;;;2.78;1.73;;;16.40;66.90;;;;;;5052312;28;20532;-68
2022/11/09 06:48:08;;;;;;;2.65;1.58;;;16.40;66.80;;;;;;5053106;28;20194;-68
2022/11/09 06:50:33;;;;;;;2.30;1.40;;;16.30;66.80;;;;;;5052307;28;20268;-67
2022/11/09 06:53:01;;;;;;;2.67;1.52;;;16.30;66.80;;;;;;5052471;28;20249;-67
2022/11/09 06:55:26;;;;;;;2.35;1.27;;;16.40;66.80;;;;;;5053224;28;20186;-68
2022/11/09 06:57:52;;;;;;;3.05;1.77;;;16.30;66.70;;;;;;5053404;28;20177;-67
2022/11/09 07:00:18;;;;;;;1.88;1.60;;;16.30;66.80;;;;;;5052664;28;20584;-67
2022/11/09 07:02:43;;;;;;;1.80;1.70;;;16.30;66.80;;;;;;5053687;28;20175;-68
2022/11/09 07:05:09;;;;;;;2.47;1.60;;;16.30;66.80;;;;;;5053143;28;20179;-67
2022/11/09 07:07:34;;;;;;;2.15;1.40;;;16.30;66.80;;;;;;5052796;28;20175;-68
2022/11/09 07:10:00;;;;;;;2.17;1.65;;;16.40;66.90;;;;;;5052818;28;20226;-68
2022/11/09 07:12:25;;;;;;;1.75;1.45;;;16.40;66.80;;;;;;5053355;28;20167;-67
2022/11/09 07:14:51;;;;;;;2.80;1.42;;;16.50;66.80;;;;;;5052496;28;20171;-68
2022/11/09 07:17:16;;;;;;;1.90;1.50;;;16.50;66.70;;;;;;5053170;28;20183;-68
2022/11/09 07:19:42;;;;;;;1.92;1.40;;;16.60;66.60;;;;;;5053660;28;20179;-68
2022/11/09 07:22:07;;;;;;;1.63;1.20;;;16.70;66.60;;;;;;5052666;28;20178;-67
2022/11/09 07:24:33;;;;;;;2.15;1.48;;;16.70;66.50;;;;;;5053336;28;20175;-67
2022/11/09 07:26:58;;;;;;;1.67;1.17;;;16.70;66.40;;;;;;5052621;28;20183;-67
2022/11/09 07:29:24;;;;;;;1.35;1.25;;;16.70;66.40;;;;;;5052836;28;20207;-68
2022/11/09 07:31:49;;;;;;;2.08;1.30;;;16.70;66.40;;;;;;5053537;28;20183;-68
2022/11/09 07:34:15;;;;;;;1.77;1.33;;;16.70;66.40;;;;;;5053001;28;20171;-68
2022/11/09 07:36:41;;;;;;;2.28;1.40;;;16.70;66.40;;;;;;5052351;28;20642;-68
2022/11/09 07:39:06;;;;;;;1.85;1.10;;;16.70;66.40;;;;;;5052652;28;20211;-68
2022/11/09 07:41:32;;;;;;;2.90;1.35;;;16.80;66.30;;;;;;5051920;28;20266;-68
2022/11/09 07:43:57;;;;;;;2.63;1.60;;;16.90;66.20;;;;;;5052893;28;20167;-68
2022/11/09 07:46:23;;;;;;;3.08;1.27;;;17.10;66.00;;;;;;5052673;28;20340;-67
2022/11/09 07:48:48;;;;;;;2.10;1.50;;;17.20;65.80;;;;;;5052375;28;20632;-68
2022/11/09 07:51:14;;;;;;;1.42;1.23;;;17.30;65.60;;;;;;5052657;28;20214;-68
2022/11/09 07:53:39;;;;;;;1.45;0.90;;;17.50;65.30;;;;;;5053037;28;20638;-68
2022/11/09 07:56:05;;;;;;;1.35;1.23;;;17.70;65.00;;;;;;5051128;28;20179;-68
2022/11/09 07:58:31;;;;;;;1.98;1.20;;;18.00;64.20;;;;;;5052870;28;20175;-68
2022/11/09 08:00:56;;;;;;;2.28;1.15;;;18.20;63.50;;;;;;5053006;28;20171;-68
2022/11/09 08:03:22;;;;;;;3.30;1.10;;;18.40;62.90;;;;;;5051912;28;20746;-68
2022/11/09 08:05:48;;;;;;;1.73;1.42;;;18.60;62.60;;;;;;5052378;28;20532;-69
2022/11/09 08:08:15;;;;;;;2.22;1.30;;;18.70;62.40;;;;;;5052378;28;20626;-68
2022/11/09 08:10:41;;;;;;;1.20;1.00;;;18.70;62.10;;;;;;5051714;28;20242;-68
2022/11/09 08:13:11;;;;;;;3.28;1.15;;;18.70;62.10;;;;;;5052542;28;20217;-68
2022/11/09 08:15:39;;;;;;;1.13;0.90;;;18.70;62.20;;;;;;5052594;28;20262;-68
2022/11/09 08:18:06;;;;;;;2.30;1.20;;;18.60;62.30;;;;;;5051521;28;20179;-69
2022/11/09 08:20:32;;;;;;;1.73;1.05;;;18.50;62.60;;;;;;5052883;28;20191;-68
2022/11/09 08:22:58;;;;;;;1.85;1.35;;;18.50;63.00;;;;;;5052533;28;20171;-67
2022/11/09 08:25:24;;;;;;;2.00;1.08;;;18.40;63.10;;;;;;5051917;28;20197;-68
2022/11/09 08:27:49;;;;;;;1.58;1.10;;;18.30;64.20;;;;;;5052484;28;20199;-68
2022/11/09 08:30:19;;;;;;;1.65;1.33;;;18.30;63.70;;;;;;5052319;28;20210;-69
2022/11/09 08:32:45;;;;;;;1.80;1.20;;;18.20;63.60;;;;;;5052018;28;20179;-69
2022/11/09 08:35:16;;;;;;;2.33;1.20;;;18.20;63.90;;;;;;5052188;28;20253;-69
2022/11/09 08:37:42;;;;;;;1.50;1.05;;;18.20;64.00;;;;;;5052303;28;20205;-69
2022/11/09 08:40:08;;;;;;;1.48;1.15;;;18.10;64.10;;;;;;5051520;28;20175;-69
2022/11/09 08:42:33;;;;;;;3.00;1.20;;;18.10;64.30;;;;;;5052701;28;20179;-68
2022/11/09 08:44:59;;;;;;;1.58;1.10;;;18.10;64.30;;;;;;5051583;28;20530;-68
2022/11/09 08:47:24;;;;;;;1.67;1.17;;;18.10;64.30;;;;;;5052293;28;20190;-68
2022/11/09 08:49:50;;;;;;;5.75;1.65;;;18.00;64.20;;;;;;5052194;28;20354;-68
2022/11/09 08:52:16;;;;;;;2.83;1.20;;;18.00;64.20;;;;;;5051324;28;20167;-68
2022/11/09 08:54:41;;;;;;;2.00;1.02;;;18.00;64.40;;;;;;5052103;28;20171;-69
2022/11/09 08:57:07;;;;;;;1.70;1.17;;;18.00;64.60;;;;;;5051924;28;20179;-68
2022/11/09 08:59:32;;;;;;;3.00;1.20;;;18.00;64.70;;;;;;5051177;28;20167;-69
2022/11/09 09:01:58;;;;;;;1.52;1.00;;;18.00;64.80;;;;;;5051920;28;20209;-68
2022/11/09 09:04:23;;;;;;;1.50;1.10;;;17.90;64.90;;;;;;5052378;28;20258;-68
2022/11/09 09:06:49;;;;;;;3.00;1.25;;;17.90;65.00;;;;;;5051012;28;20514;-69
2022/11/09 09:09:14;;;;;;;3.33;1.40;;;17.90;65.10;;;;;;5054039;28;20654;-68
2022/11/09 09:11:40;;;;;;;3.25;1.52;;;17.90;65.10;;;;;;5055735;28;20191;-68
2022/11/09 09:14:05;;;;;;;1.95;1.55;;;17.80;65.30;;;;;;5054713;28;20622;-69
2022/11/09 09:16:31;;;;;;;2.35;1.42;;;17.80;65.40;;;;;;5055674;28;20187;-68
2022/11/09 09:18:56;;;;;;;2.28;1.17;;;17.90;65.60;;;;;;5055811;28;20175;-69
2022/11/09 09:21:22;;;;;;;1.25;1.15;;;17.80;65.60;;;;;;5055171;28;20176;-68
2022/11/09 09:23:50;;;;;;;2.80;1.50;;;17.70;65.70;;;;;;5055852;28;20167;-67
2022/11/09 09:26:16;;;;;;;3.70;1.50;;;17.70;65.80;;;;;;5055331;28;20205;-68
2022/11/09 09:28:41;;;;;;;2.40;1.48;;;17.70;65.90;;;;;;5054254;28;20203;-68
2022/11/09 09:31:07;;;;;;;2.10;1.30;;;17.60;66.00;;;;;;5055089;28;20731;-68
2022/11/09 09:33:32;;;;;;;2.15;1.55;;;17.60;66.00;;;;;;5055444;28;20175;-69
2022/11/09 09:35:58;;;;;;;2.75;1.20;;;17.60;66.00;;;;;;5054714;28;20701;-69
2022/11/09 09:38:24;;;;;;;2.30;1.13;;;17.70;66.10;;;;;;5055142;28;20266;-70
2022/11/09 09:40:59;;;;;;;1.88;1.13;;;17.70;66.20;;;;;;5055664;28;20526;-68
2022/11/09 09:43:27;;;;;;;1.27;1.17;;;17.70;66.10;;;;;;5054890;28;20179;-68
2022/11/09 09:45:53;;;;;;;2.95;1.60;;;17.80;66.00;;;;;;5055492;28;20289;-68
2022/11/09 09:48:30;;;;;;;2.40;1.25;;;17.80;66.00;;;;;;5053876;28;20519;-68
2022/11/09 09:50:59;;;;;;;3.17;1.40;;;17.70;66.80;;;;;;5054022;28;20703;-68
2022/11/09 09:53:32;;;;;;;2.47;1.23;;;17.70;66.10;;;;;;5037992;28;20237;-68
2022/11/09 09:56:17;;;;;;;2.30;1.30;;;17.70;66.20;;;;;;5054295;28;20587;-68
2022/11/09 09:58:50;;;;;;;3.25;1.30;;;17.60;66.20;;;;;;5053501;28;20175;-68
2022/11/09 10:01:21;;;;;;;1.77;1.25;;;17.70;66.30;;;;;;5053757;28;20551;-69
2022/11/09 10:03:47;;;;;;;2.33;1.85;;;17.70;66.20;;;;;;5054431;28;20671;-69
2022/11/09 10:06:39;;;;;;;1.27;1.10;;;17.70;66.20;;;;;;5054758;28;20262;-68
2022/11/09 10:09:24;;;;;;;3.58;1.20;;;17.80;66.10;;;;;;5034527;28;20303;-68
2022/11/09 10:12:09;;;;;;;1.85;1.20;;;17.80;66.10;;;;;;5033210;28;20198;-68
2022/11/09 10:14:40;;;;;;;1.48;1.30;;;17.80;65.90;;;;;;5035068;28;20229;-68
2022/11/09 10:17:09;;;;;;;2.85;1.35;;;17.80;65.80;;;;;;5038611;28;20167;-68
2022/11/09 10:19:55;;;;;;;2.35;1.30;;;17.80;65.90;;;;;;5054107;28;20194;-69
2022/11/09 10:22:54;;;;;;;3.42;1.75;;;17.70;65.90;;;;;;5054013;28;20175;-68
2022/11/09 10:25:24;;;;;;;2.03;1.02;;;17.70;65.80;;;;;;5038102;28;20190;-68
2022/11/09 10:28:03;;;;;;;5.10;1.45;;;17.70;65.90;;;;;;5052835;28;20186;-68
2022/11/09 10:30:28;;;;;;;5.10;1.65;;;17.70;65.90;;;;;;5052525;28;20770;-68
2022/11/09 10:33:19;;;;;;;2.92;1.40;;;17.70;65.80;;;;;;5053506;28;20175;-69
2022/11/09 10:36:01;;;;;;;2.90;1.55;;;17.80;65.70;;;;;;5054490;28;20638;-69
2022/11/09 10:38:30;;;;;;;1.73;1.20;;;17.80;65.70;;;;;;5052291;28;20626;-69
2022/11/09 10:41:05;;;;;;;2.42;1.20;;;17.70;65.80;;;;;;5053951;28;20230;-69
2022/11/09 10:43:31;;;;;;;2.00;1.45;;;17.70;66.00;;;;;;5053194;28;20171;-68
2022/11/09 10:45:59;;;;;;;3.55;1.25;;;17.60;65.90;;;;;;5053229;28;20630;-68
2022/11/09 10:48:37;;;;;;;5.55;1.55;;;17.60;66.00;;;;;;5053948;28;20183;-70
2022/11/09 10:51:03;;;;;;;2.50;1.52;;;17.70;66.30;;;;;;5053597;28;20264;-69
2022/11/09 10:53:30;;;;;;;6.50;1.80;;;17.60;66.40;;;;;;5052868;28;20167;-68
2022/11/09 10:55:56;;;;;;;6.10;1.77;;;17.60;66.60;;;;;;5054120;28;20202;-71
2022/11/09 10:58:44;;;;;;;6.28;1.70;;;17.60;67.00;;;;;;5053711;28;20174;-70
2022/11/09 11:01:13;;;;;;;6.18;2.22;;;17.70;67.40;;;;;;5053656;28;20270;-73
2022/11/09 11:03:38;;;;;;;5.15;1.63;;;17.70;67.70;;;;;;5053870;28;20175;-72
2022/11/09 11:06:05;;;;;;;4.18;1.60;;;17.70;67.90;;;;;;5051870;28;20221;-73
2022/11/09 11:08:34;;;;;;;3.95;1.70;;;17.70;68.10;;;;;;5053763;28;20186;-73
2022/11/09 11:11:06;;;;;;;3.53;1.70;;;17.70;68.30;;;;;;5053292;28;20698;-72
2022/11/09 11:13:31;;;;;;;5.40;2.05;;;17.70;68.60;;;;;;5052384;28;20179;-73
2022/11/09 11:15:57;;;;;;;9.15;1.55;;;17.70;68.70;;;;;;5052000;28;20177;-72
2022/11/09 11:18:23;;;;;;;4.53;1.65;;;17.70;68.80;;;;;;5035604;28;20171;-70
2022/11/09 11:21:15;;;;;;;6.03;1.70;;;17.70;68.80;;;;;;5051651;28;20656;-71
2022/11/09 11:23:40;;;;;;;3.35;1.80;;;17.70;68.90;;;;;;5053752;28;20194;-70
2022/11/09 11:26:19;;;;;;;4.70;1.85;;;17.60;69.00;;;;;;5053418;28;20179;-68
2022/11/09 11:28:49;;;;;;;2.45;1.30;;;17.60;69.10;;;;;;5052416;28;20637;-69
2022/11/09 11:31:17;;;;;;;4.57;2.08;;;17.60;69.10;;;;;;5051144;28;20712;-71
2022/11/09 11:33:43;;;;;;;4.70;1.45;;;17.60;69.10;;;;;;5051754;28;20175;-71
2022/11/09 11:36:19;;;;;;;4.38;1.60;;;17.60;69.30;;;;;;5052162;28;20182;-69
2022/11/09 11:38:50;;;;;;;2.50;1.70;;;17.60;69.30;;;;;;5052029;28;20171;-70
2022/11/09 11:41:43;;;;;;;6.45;1.70;;;17.60;69.40;;;;;;5052174;28;20172;-72
2022/11/09 11:44:32;;;;;;;5.75;1.65;;;17.60;69.30;;;;;;5052941;28;20183;-69
2022/11/09 11:47:19;;;;;;;6.45;2.22;;;17.60;69.20;;;;;;5051501;28;20171;-70
2022/11/09 11:50:00;;;;;;;2.63;1.50;;;17.60;69.30;;;;;;5052508;28;20194;-70
2022/11/09 11:52:39;;;;;;;5.55;1.70;;;17.50;69.10;;;;;;5051837;28;20214;-70
2022/11/09 11:55:19;;;;;;;7.00;1.92;;;17.50;69.20;;;;;;5035204;28;20179;-69
2022/11/09 11:57:50;;;;;;;3.85;1.50;;;17.50;69.20;;;;;;5051611;28;20613;-70
2022/11/09 12:00:17;;;;;;;5.50;1.98;;;17.50;69.30;;;;;;5052582;28;20174;-70
2022/11/09 12:03:26;;;;;;;4.13;1.60;;;17.50;70.00;;;;;;5052450;28;20189;-71
2022/11/09 12:06:09;;;;;;;2.30;1.73;;;17.50;69.10;;;;;;5051842;28;20644;-70
2022/11/09 12:08:38;;;;;;;8.05;1.85;;;17.50;69.20;;;;;;5052722;28;20571;-70
2022/11/09 12:11:19;;;;;;;3.92;1.50;;;17.50;69.10;;;;;;5051528;28;20226;-70
2022/11/09 12:14:13;;;;;;;8.30;2.00;;;17.40;69.10;;;;;;5051655;28;20175;-70
2022/11/09 12:16:47;;;;;;;3.63;1.70;;;17.50;69.20;;;;;;5050352;28;20179;-71
2022/11/09 12:19:47;;;;;;;5.13;1.63;;;17.40;69.30;;;;;;5050797;28;20178;-68
2022/11/09 12:22:25;;;;;;;6.70;1.63;;;17.40;69.30;;;;;;5051363;28;20221;-72
2022/11/09 12:25:10;;;;;;;4.05;1.60;;;17.50;69.30;;;;;;5051870;28;20170;-69
2022/11/09 12:27:43;;;;;;;5.57;1.70;;;17.50;69.00;;;;;;5050777;28;20262;-69
2022/11/09 12:30:20;;;;;;;4.07;1.33;;;17.50;68.90;;;;;;5050113;28;21068;-71
2022/11/09 12:32:55;;;;;;;5.43;1.70;;;17.50;68.70;;;;;;5051445;28;20258;-70
2022/11/09 12:35:27;;;;;;;4.95;1.63;;;17.50;68.50;;;;;;5035111;28;20469;-71
2022/11/09 12:38:03;;;;;;;4.03;1.50;;;17.60;68.50;;;;;;5050365;28;20689;-71
2022/11/09 12:40:36;;;;;;;3.28;1.50;;;17.60;68.30;;;;;;5051530;28;20263;-70
2022/11/09 12:43:03;;;;;;;6.38;2.22;;;17.60;68.00;;;;;;5054489;28;20171;-69
2022/11/09 12:45:29;;;;;;;3.35;1.50;;;17.70;67.90;;;;;;5054414;28;20171;-69
2022/11/09 12:47:56;;;;;;;5.70;1.52;;;17.70;67.70;;;;;;5056213;28;20178;-70
2022/11/09 12:50:23;;;;;;;2.83;1.38;;;17.60;67.70;;;;;;5038377;28;20275;-70
2022/11/09 12:52:51;;;;;;;5.53;2.00;;;17.60;67.90;;;;;;5055918;28;20175;-71
2022/11/09 12:55:41;;;;;;;2.25;1.40;;;17.60;68.00;;;;;;5038640;28;20651;-71
2022/11/09 12:58:06;;;;;;;6.68;1.60;;;17.50;68.00;;;;;;5053755;28;20645;-69